createdAt,value
2018-12-04T00:00:36.658Z,4.30
2018-12-04T00:03:05.706Z,4.17
2018-12-04T00:05:34.902Z,4.30
2018-12-04T00:08:03.597Z,4.10
2018-12-04T00:10:31.926Z,4.40
2018-12-04T00:13:00.273Z,4.40
2018-12-04T00:15:28.626Z,3.73
2018-12-04T00:17:57.087Z,4.60
2018-12-04T00:20:25.392Z,3.87
2018-12-04T00:22:53.689Z,3.77
2018-12-04T00:25:22.078Z,3.87
2018-12-04T00:27:50.382Z,3.70
2018-12-04T00:30:18.692Z,3.77
2018-12-04T00:32:47.067Z,3.70
2018-12-04T00:35:15.378Z,3.63
2018-12-04T00:37:43.678Z,3.60
2018-12-04T00:40:12.020Z,4.20
2018-12-04T00:42:40.460Z,4.77
2018-12-04T00:45:09.964Z,5.00
2018-12-04T00:47:38.283Z,5.33
2018-12-04T00:50:06.880Z,5.70
2018-12-04T00:52:35.185Z,5.73
2018-12-04T00:55:03.650Z,6.33
2018-12-04T00:57:31.991Z,6.13
2018-12-04T01:00:00.313Z,5.47
2018-12-04T01:02:28.689Z,6.20
2018-12-04T01:04:57.092Z,6.17
2018-12-04T01:07:25.431Z,5.90
2018-12-04T01:09:53.742Z,5.83
2018-12-04T01:12:22.025Z,5.37
2018-12-04T01:14:50.402Z,4.90
2018-12-04T01:17:18.715Z,4.20
2018-12-04T01:19:47.050Z,3.60
2018-12-04T01:22:15.350Z,3.10
2018-12-04T01:24:43.690Z,2.47
2018-12-04T01:27:12.045Z,2.90
2018-12-04T01:29:40.433Z,2.17
2018-12-04T01:32:08.749Z,2.67
2018-12-04T01:34:37.057Z,2.57
2018-12-04T01:37:05.445Z,2.60
2018-12-04T01:39:33.745Z,2.47
2018-12-04T01:42:02.044Z,2.50
2018-12-04T01:44:30.495Z,2.10
2018-12-04T01:46:58.862Z,2.40
2018-12-04T01:49:27.221Z,1.93
2018-12-04T01:51:55.520Z,2.20
2018-12-04T01:54:23.865Z,1.97
2018-12-04T01:56:52.143Z,2.10
2018-12-04T01:59:20.473Z,2.13
2018-12-04T02:01:48.839Z,2.10
2018-12-04T02:04:17.171Z,1.80
2018-12-04T02:06:45.476Z,1.60
2018-12-04T02:09:13.881Z,1.67
2018-12-04T02:11:42.376Z,1.40
2018-12-04T02:14:10.674Z,1.47
2018-12-04T02:16:39.032Z,1.60
2018-12-04T02:19:07.366Z,1.60
2018-12-04T02:21:35.670Z,1.40
2018-12-04T02:24:04.064Z,1.40
2018-12-04T02:26:32.390Z,1.20
2018-12-04T02:29:00.838Z,1.50
2018-12-04T02:31:29.210Z,1.23
2018-12-04T02:33:57.511Z,1.27
2018-12-04T02:36:25.814Z,1.63
2018-12-04T02:38:54.137Z,1.97
2018-12-04T02:41:22.493Z,1.90
2018-12-04T02:43:50.861Z,1.90
2018-12-04T02:46:19.172Z,2.03
2018-12-04T02:48:47.540Z,1.97
2018-12-04T02:51:15.886Z,1.97
2018-12-04T02:53:44.225Z,2.80
2018-12-04T02:56:12.532Z,2.07
2018-12-04T02:58:40.809Z,2.10
2018-12-04T03:01:09.125Z,2.10
2018-12-04T03:03:37.424Z,2.30
2018-12-04T03:06:05.746Z,2.23
2018-12-04T03:08:34.041Z,2.10
2018-12-04T03:11:02.523Z,2.20
2018-12-04T03:13:30.845Z,2.50
2018-12-04T03:15:59.366Z,2.40
2018-12-04T03:18:27.720Z,2.20
2018-12-04T03:20:56.021Z,2.00
2018-12-04T03:23:24.314Z,2.03
2018-12-04T03:25:52.657Z,2.37
2018-12-04T03:28:20.929Z,2.00
2018-12-04T03:30:49.257Z,2.27
2018-12-04T03:33:28.782Z,1.90
2018-12-04T03:35:57.226Z,2.10
2018-12-04T03:38:25.492Z,3.10
2018-12-04T03:40:53.790Z,1.60
2018-12-04T03:43:22.309Z,1.93
2018-12-04T03:45:50.681Z,2.00
2018-12-04T03:48:18.973Z,1.80
2018-12-04T03:50:47.327Z,1.93
2018-12-04T03:53:22.357Z,1.60
2018-12-04T03:55:50.677Z,1.70
2018-12-04T03:58:19.108Z,1.90
2018-12-04T04:00:47.493Z,1.87
2018-12-04T04:03:15.768Z,1.80
2018-12-04T04:05:44.080Z,2.43
2018-12-04T04:08:12.497Z,2.13
2018-12-04T04:10:40.919Z,1.83
2018-12-04T04:13:09.195Z,2.43
2018-12-04T04:15:37.614Z,2.37
2018-12-04T04:18:05.967Z,2.10
2018-12-04T04:20:34.402Z,2.00
2018-12-04T04:23:02.822Z,4.87
2018-12-04T04:25:31.213Z,1.70
2018-12-04T04:27:59.618Z,2.07
2018-12-04T04:30:27.969Z,2.87
2018-12-04T04:32:56.309Z,2.10
2018-12-04T04:35:24.705Z,2.67
2018-12-04T04:37:53.013Z,2.60
2018-12-04T04:40:21.382Z,2.40
2018-12-04T04:42:49.679Z,2.57
2018-12-04T04:45:17.983Z,2.30
2018-12-04T04:47:46.287Z,2.37
2018-12-04T04:50:14.634Z,3.40
2018-12-04T04:52:42.926Z,7.00
2018-12-04T04:55:11.240Z,2.20
2018-12-04T04:57:39.578Z,2.00
2018-12-04T05:00:08.144Z,2.70
2018-12-04T05:02:36.629Z,1.83
2018-12-04T05:05:05.555Z,2.07
2018-12-04T05:07:33.960Z,2.10
2018-12-04T05:10:02.294Z,2.33
2018-12-04T05:12:30.619Z,2.63
2018-12-04T05:14:58.937Z,1.70
2018-12-04T05:17:27.237Z,1.90
2018-12-04T05:19:55.567Z,1.60
2018-12-04T05:22:23.874Z,1.67
2018-12-04T05:24:52.437Z,1.77
2018-12-04T05:27:20.748Z,1.70
2018-12-04T05:29:49.126Z,1.97
2018-12-04T05:32:17.443Z,1.87
2018-12-04T05:34:45.746Z,2.23
2018-12-04T05:37:14.078Z,1.73
2018-12-04T05:39:42.354Z,1.70
2018-12-04T05:42:10.688Z,1.60
2018-12-04T05:44:38.981Z,1.93
2018-12-04T05:47:07.621Z,1.37
2018-12-04T05:49:36.110Z,1.60
2018-12-04T05:52:04.450Z,1.80
2018-12-04T05:54:32.741Z,1.33
2018-12-04T05:57:01.256Z,1.53
2018-12-04T05:59:29.597Z,1.40
2018-12-04T06:01:57.918Z,1.40
2018-12-04T06:04:26.260Z,1.30
2018-12-04T06:06:54.584Z,1.23
2018-12-04T06:09:22.968Z,1.60
2018-12-04T06:11:51.268Z,1.50
2018-12-04T06:14:19.536Z,1.20
2018-12-04T06:16:47.868Z,1.70
2018-12-04T06:19:16.195Z,1.60
2018-12-04T06:21:44.565Z,1.70
2018-12-04T06:24:12.859Z,1.47
2018-12-04T06:26:41.166Z,1.50
2018-12-04T06:29:09.461Z,1.60
2018-12-04T06:31:37.878Z,1.43
2018-12-04T06:34:06.302Z,1.60
2018-12-04T06:36:34.612Z,1.87
2018-12-04T06:39:03.033Z,1.63
2018-12-04T06:41:31.337Z,1.60
2018-12-04T06:43:59.637Z,1.63
2018-12-04T06:46:27.980Z,1.50
2018-12-04T06:48:56.283Z,1.40
2018-12-04T06:51:24.630Z,1.70
2018-12-04T06:53:52.942Z,1.87
2018-12-04T06:56:21.354Z,1.77
2018-12-04T06:58:49.629Z,1.83
2018-12-04T07:01:17.949Z,1.73
2018-12-04T07:03:46.437Z,1.87
2018-12-04T07:06:14.734Z,1.77
2018-12-04T07:08:43.056Z,1.90
2018-12-04T07:11:11.493Z,1.97
2018-12-04T07:13:40.040Z,1.90
2018-12-04T07:16:08.812Z,2.10
2018-12-04T07:18:37.109Z,1.73
2018-12-04T07:21:05.516Z,2.00
2018-12-04T07:23:33.840Z,2.20
2018-12-04T07:26:02.257Z,2.37
2018-12-04T07:28:30.534Z,2.10
2018-12-04T07:30:58.841Z,2.70
2018-12-04T07:33:27.169Z,2.10
2018-12-04T07:35:55.518Z,2.33
2018-12-04T07:38:23.943Z,2.10
2018-12-04T07:40:52.251Z,2.50
2018-12-04T07:43:20.539Z,2.10
2018-12-04T07:45:48.824Z,2.50
2018-12-04T07:48:17.206Z,2.50
2018-12-04T07:50:45.555Z,3.50
2018-12-04T07:53:13.938Z,2.73
2018-12-04T07:55:45.627Z,2.67
2018-12-04T07:58:15.698Z,2.53
2018-12-04T08:00:44.149Z,2.30
2018-12-04T08:03:12.545Z,2.50
2018-12-04T08:05:41.006Z,2.20
2018-12-04T08:08:09.336Z,2.47
2018-12-04T08:10:37.825Z,2.97
2018-12-04T08:13:06.227Z,2.50
2018-12-04T08:15:34.517Z,2.60
2018-12-04T08:18:02.924Z,2.50
2018-12-04T08:20:31.261Z,2.60
2018-12-04T08:22:59.737Z,2.40
2018-12-04T08:25:28.074Z,2.67
2018-12-04T08:27:56.480Z,2.33
2018-12-04T08:30:24.774Z,2.23
2018-12-04T08:32:53.101Z,2.50
2018-12-04T08:35:21.449Z,2.40
2018-12-04T08:37:49.830Z,2.50
2018-12-04T08:40:18.091Z,2.60
2018-12-04T08:42:46.392Z,3.03
2018-12-04T08:45:14.701Z,2.23
2018-12-04T08:47:43.004Z,2.63
2018-12-04T08:50:11.441Z,2.00
2018-12-04T08:52:39.749Z,2.43
2018-12-04T08:55:08.012Z,2.33
2018-12-04T08:57:36.301Z,2.40
2018-12-04T09:00:05.867Z,2.40
2018-12-04T09:02:34.190Z,2.40
2018-12-04T09:05:02.485Z,2.37
2018-12-04T09:07:30.785Z,2.20
2018-12-04T09:09:59.064Z,2.50
2018-12-04T09:12:27.362Z,2.60
2018-12-04T09:14:55.711Z,2.30
2018-12-04T09:17:24.023Z,2.60
2018-12-04T09:19:52.421Z,2.80
2018-12-04T09:22:20.831Z,2.50
2018-12-04T09:24:49.245Z,3.03
2018-12-04T09:27:17.668Z,3.00
2018-12-04T09:29:46.149Z,2.50
2018-12-04T09:32:14.565Z,2.80
2018-12-04T09:34:42.882Z,2.60
2018-12-04T09:37:11.193Z,2.60
2018-12-04T09:39:39.568Z,2.50
2018-12-04T09:42:07.924Z,2.73
2018-12-04T09:44:36.261Z,2.27
2018-12-04T09:47:04.594Z,2.23
2018-12-04T09:49:32.962Z,2.40
2018-12-04T09:52:01.314Z,2.63
2018-12-04T09:54:29.678Z,3.17
2018-12-04T09:56:57.979Z,2.47
2018-12-04T09:59:26.411Z,2.30
2018-12-04T10:01:54.694Z,2.10
2018-12-04T10:04:23.030Z,2.40
2018-12-04T10:06:51.362Z,3.37
2018-12-04T10:09:19.799Z,3.20
2018-12-04T10:11:48.208Z,6.17
2018-12-04T10:14:16.666Z,4.20
2018-12-04T10:16:44.981Z,3.60
2018-12-04T10:19:13.437Z,3.20
2018-12-04T10:21:42.617Z,2.80
2018-12-04T10:24:10.937Z,3.93
2018-12-04T10:26:39.545Z,3.33
2018-12-04T10:29:07.938Z,3.87
2018-12-04T10:31:36.502Z,3.20
2018-12-04T10:34:04.857Z,3.17
2018-12-04T10:36:33.197Z,2.70
2018-12-04T10:39:01.779Z,2.33
2018-12-04T10:41:30.098Z,2.50
2018-12-04T10:43:58.486Z,2.40
2018-12-04T10:46:26.802Z,2.80
2018-12-04T10:48:55.286Z,3.60
2018-12-04T10:51:23.556Z,2.33
2018-12-04T10:53:52.213Z,2.57
2018-12-04T10:56:20.532Z,2.67
2018-12-04T10:58:48.923Z,2.10
2018-12-04T11:01:27.473Z,2.07
2018-12-04T11:03:55.772Z,2.17
2018-12-04T11:06:24.074Z,2.10
2018-12-04T11:08:52.600Z,2.67
2018-12-04T11:11:20.901Z,2.77
2018-12-04T11:13:49.281Z,2.37
2018-12-04T11:16:17.939Z,3.00
2018-12-04T11:18:46.278Z,3.40
2018-12-04T11:21:14.854Z,2.20
2018-12-04T11:23:43.173Z,2.30
2018-12-04T11:26:11.466Z,2.20
2018-12-04T11:28:39.731Z,2.43
2018-12-04T11:31:08.030Z,2.80
2018-12-04T11:33:36.596Z,2.27
2018-12-04T11:36:05.236Z,2.30
2018-12-04T11:38:33.581Z,2.50
2018-12-04T11:41:01.926Z,2.40
2018-12-04T11:43:30.256Z,2.47
2018-12-04T11:45:58.654Z,2.23
2018-12-04T11:48:26.990Z,2.27
2018-12-04T11:51:00.165Z,2.20
2018-12-04T11:53:25.664Z,2.13
2018-12-04T11:55:54.092Z,2.40
2018-12-04T11:58:22.700Z,2.37
2018-12-04T12:00:51.209Z,2.70
2018-12-04T12:03:19.541Z,2.57
2018-12-04T12:05:48.019Z,2.37
2018-12-04T12:08:16.323Z,2.50
2018-12-04T12:10:44.697Z,2.60
2018-12-04T12:13:13.065Z,2.83
2018-12-04T12:15:41.521Z,3.83
2018-12-04T12:18:09.894Z,3.83
2018-12-04T12:20:38.494Z,4.20
2018-12-04T12:23:06.863Z,2.43
2018-12-04T12:25:35.179Z,4.13
2018-12-04T12:28:03.479Z,5.00
2018-12-04T12:30:31.767Z,2.30
2018-12-04T12:33:00.105Z,3.67
2018-12-04T12:35:28.469Z,2.50
2018-12-04T12:37:56.836Z,2.90
2018-12-04T12:40:25.220Z,2.40
2018-12-04T12:42:53.740Z,2.40
2018-12-04T12:45:22.082Z,2.57
2018-12-04T12:47:50.415Z,3.60
2018-12-04T12:50:18.861Z,2.10
2018-12-04T12:52:47.272Z,2.03
2018-12-04T12:55:15.726Z,2.50
2018-12-04T12:57:44.121Z,2.53
2018-12-04T13:00:12.548Z,2.20
2018-12-04T13:02:41.385Z,1.83
2018-12-04T13:05:09.781Z,2.10
2018-12-04T13:07:38.158Z,2.57
2018-12-04T13:10:09.534Z,2.63
2018-12-04T13:12:38.021Z,2.20
2018-12-04T13:15:08.273Z,2.33
2018-12-04T13:17:36.684Z,1.97
2018-12-04T13:20:06.447Z,2.50
2018-12-04T13:22:34.777Z,2.03
2018-12-04T13:25:03.214Z,3.10
2018-12-04T13:27:31.697Z,2.13
2018-12-04T13:30:00.000Z,2.17
2018-12-04T13:32:28.402Z,2.03
2018-12-04T13:34:57.151Z,2.77
2018-12-04T13:37:25.704Z,2.10
2018-12-04T13:39:54.404Z,2.20
2018-12-04T13:42:23.073Z,2.20
2018-12-04T13:44:51.498Z,2.47
2018-12-04T13:47:19.813Z,1.70
2018-12-04T13:49:48.391Z,1.87
2018-12-04T13:52:16.717Z,2.00
2018-12-04T13:54:45.134Z,2.40
2018-12-04T13:57:13.570Z,2.43
2018-12-04T13:59:41.990Z,2.40
2018-12-04T14:02:10.836Z,6.33
2018-12-04T14:04:39.258Z,2.50
2018-12-04T14:07:07.887Z,2.93
2018-12-04T14:09:36.360Z,2.63
2018-12-04T14:12:04.881Z,4.97
2018-12-04T14:14:33.295Z,4.30
2018-12-04T14:17:01.772Z,4.73
2018-12-04T14:19:30.045Z,4.47
2018-12-04T14:21:58.520Z,4.10
2018-12-04T14:24:26.893Z,4.30
2018-12-04T14:26:55.926Z,5.63
2018-12-04T14:29:24.435Z,3.53
2018-12-04T14:31:52.862Z,3.40
2018-12-04T14:34:21.229Z,4.97
2018-12-04T14:36:49.627Z,8.07
2018-12-04T14:39:17.999Z,2.60
2018-12-04T14:41:46.554Z,4.67
2018-12-04T14:44:15.095Z,10.67
2018-12-04T14:46:43.568Z,4.63
2018-12-04T14:49:12.008Z,3.00
2018-12-04T14:51:40.483Z,2.53
2018-12-04T14:54:08.908Z,5.57
2018-12-04T14:56:37.344Z,7.70
2018-12-04T14:59:05.957Z,8.73
2018-12-04T15:01:34.603Z,12.77
2018-12-04T15:04:03.171Z,6.43
2018-12-04T15:06:31.617Z,6.10
2018-12-04T15:09:01.153Z,5.50
2018-12-04T15:11:29.789Z,3.90
2018-12-04T15:13:58.330Z,4.07
2018-12-04T15:16:26.668Z,3.40
2018-12-04T15:18:54.964Z,46.80
2018-12-04T15:21:23.593Z,13.23
2018-12-04T15:23:52.083Z,20.23
2018-12-04T15:26:20.675Z,12.53
2018-12-04T15:28:49.238Z,4.00
2018-12-04T15:31:17.870Z,2.20
2018-12-04T15:33:46.268Z,2.50
2018-12-04T15:36:14.653Z,2.00
2018-12-04T15:38:43.029Z,2.17
2018-12-04T15:41:11.565Z,2.47
2018-12-04T15:43:39.945Z,2.43
2018-12-04T15:46:08.514Z,2.27
2018-12-04T15:48:36.976Z,2.60
2018-12-04T15:51:05.664Z,5.60
2018-12-04T15:53:34.015Z,3.53
2018-12-04T15:56:02.378Z,11.73
2018-12-04T15:58:30.757Z,15.03
2018-12-04T16:00:59.911Z,16.30
2018-12-04T16:03:28.420Z,22.20
2018-12-04T16:05:56.849Z,8.80
2018-12-04T16:08:25.192Z,9.87
2018-12-04T16:10:53.491Z,7.83
2018-12-04T16:13:21.949Z,12.47
2018-12-04T16:15:50.651Z,9.30
2018-12-04T16:18:19.045Z,7.27
2018-12-04T16:20:48.750Z,6.00
2018-12-04T16:23:17.360Z,4.07
2018-12-04T16:25:45.661Z,7.27
2018-12-04T16:28:13.968Z,9.77
2018-12-04T16:30:42.301Z,9.00
2018-12-04T16:33:10.810Z,5.00
2018-12-04T16:35:39.118Z,3.97
2018-12-04T16:38:07.444Z,4.20
2018-12-04T16:40:35.885Z,4.97
2018-12-04T16:43:04.445Z,2.50
2018-12-04T16:45:32.863Z,2.90
2018-12-04T16:48:01.375Z,2.70
2018-12-04T16:50:29.977Z,3.30
2018-12-04T16:52:58.405Z,2.80
2018-12-04T16:55:27.101Z,2.30
2018-12-04T16:57:55.409Z,2.90
2018-12-04T17:00:23.910Z,3.20
2018-12-04T17:02:52.293Z,3.87
2018-12-04T17:05:20.600Z,3.10
2018-12-04T17:07:49.305Z,2.30
2018-12-04T17:10:22.413Z,2.83
2018-12-04T17:12:48.282Z,2.80
2018-12-04T17:15:16.621Z,6.10
2018-12-04T17:17:45.015Z,4.93
2018-12-04T17:20:14.074Z,3.70
2018-12-04T17:22:42.513Z,3.20
2018-12-04T17:25:10.815Z,3.33
2018-12-04T17:27:39.241Z,4.70
2018-12-04T17:30:09.978Z,5.37
2018-12-04T17:32:38.325Z,4.43
2018-12-04T17:35:07.993Z,3.10
2018-12-04T17:37:36.372Z,6.90
2018-12-04T17:40:05.921Z,3.83
2018-12-04T17:42:34.416Z,9.70
2018-12-04T17:45:02.851Z,10.13
2018-12-04T17:47:31.261Z,9.43
2018-12-04T17:49:59.712Z,9.47
2018-12-04T17:52:29.509Z,16.37
2018-12-04T17:54:58.130Z,7.57
2018-12-04T17:57:26.513Z,14.67
2018-12-04T17:59:54.910Z,6.70
2018-12-04T18:02:23.254Z,8.63
2018-12-04T18:04:51.559Z,5.63
2018-12-04T18:07:19.930Z,3.37
2018-12-04T18:09:48.224Z,3.10
2018-12-04T18:12:16.606Z,4.73
2018-12-04T18:14:45.021Z,3.67
2018-12-04T18:17:13.433Z,3.57
2018-12-04T18:19:41.785Z,4.83
2018-12-04T18:22:10.301Z,6.83
2018-12-04T18:24:38.670Z,7.13
2018-12-04T18:27:07.081Z,11.87
2018-12-04T18:29:35.539Z,47.40
2018-12-04T18:32:04.353Z,72.73
2018-12-04T18:34:32.764Z,38.77
2018-12-04T18:37:01.257Z,23.73
2018-12-04T18:39:29.872Z,41.00
2018-12-04T18:41:58.141Z,19.10
2018-12-04T18:44:26.453Z,13.57
2018-12-04T18:46:54.869Z,11.70
2018-12-04T18:49:23.258Z,29.83
2018-12-04T18:51:51.595Z,13.67
2018-12-04T18:54:20.173Z,15.93
2018-12-04T18:56:48.610Z,6.70
2018-12-04T18:59:16.965Z,8.13
2018-12-04T19:01:45.438Z,23.70
2018-12-04T19:04:13.773Z,14.77
2018-12-04T19:06:42.272Z,13.67
2018-12-04T19:09:10.718Z,11.30
2018-12-04T19:11:39.150Z,9.93
2018-12-04T19:14:07.644Z,5.80
2018-12-04T19:16:36.144Z,8.27
2018-12-04T19:19:04.652Z,12.60
2018-12-04T19:21:33.092Z,15.07
2018-12-04T19:24:01.474Z,8.97
2018-12-04T19:26:29.826Z,11.40
2018-12-04T19:31:54.181Z,5.73
2018-12-04T19:34:22.493Z,14.53
2018-12-04T19:36:50.977Z,20.10
2018-12-04T19:39:19.405Z,8.47
2018-12-04T19:41:48.018Z,11.47
2018-12-04T19:44:16.640Z,22.93
2018-12-04T19:46:45.073Z,15.13
2018-12-04T19:49:15.115Z,14.83
2018-12-04T19:51:43.904Z,35.03
2018-12-04T19:54:12.223Z,41.57
2018-12-04T19:56:40.724Z,24.60
2018-12-04T19:59:09.277Z,5.67
2018-12-04T20:01:40.513Z,5.37
2018-12-04T20:04:09.250Z,28.40
2018-12-04T20:06:37.633Z,19.63
2018-12-04T20:09:08.083Z,5.70
2018-12-04T20:11:36.433Z,9.13
2018-12-04T20:14:05.069Z,12.20
2018-12-04T20:16:34.286Z,7.07
2018-12-04T20:19:02.666Z,5.00
2018-12-04T20:21:31.100Z,7.63
2018-12-04T20:23:59.496Z,5.90
2018-12-04T20:26:27.917Z,10.47
2018-12-04T20:28:56.380Z,9.23
2018-12-04T20:31:24.858Z,8.10
2018-12-04T20:33:53.349Z,5.60
2018-12-04T20:36:21.932Z,4.07
2018-12-04T20:38:50.609Z,4.57
2018-12-04T20:41:18.953Z,4.37
2018-12-04T20:43:47.332Z,4.90
2018-12-04T20:46:15.879Z,4.17
2018-12-04T20:48:44.468Z,3.73
2018-12-04T20:51:12.884Z,3.83
2018-12-04T20:53:41.456Z,4.37
2018-12-04T20:56:09.869Z,3.90
2018-12-04T20:58:38.239Z,3.77
2018-12-04T21:01:06.809Z,3.90
2018-12-04T21:03:35.117Z,3.70
2018-12-04T21:06:03.626Z,3.50
2018-12-04T21:08:32.049Z,3.60
2018-12-04T21:11:00.423Z,3.87
2018-12-04T21:13:28.746Z,4.53
2018-12-04T21:15:57.154Z,4.40
2018-12-04T21:18:25.700Z,3.80
2018-12-04T21:20:54.256Z,4.27
2018-12-04T21:23:22.608Z,4.07
2018-12-04T21:25:51.021Z,3.43
2018-12-04T21:28:25.045Z,3.50
2018-12-04T21:30:58.926Z,3.40
2018-12-04T21:33:32.597Z,4.03
2018-12-04T21:36:06.319Z,3.43
2018-12-04T21:38:39.889Z,7.87
2018-12-04T21:41:14.355Z,4.90
2018-12-04T21:43:48.102Z,4.27
2018-12-04T21:46:21.821Z,3.40
2018-12-04T21:48:50.153Z,3.87
2018-12-04T21:51:18.700Z,3.60
2018-12-04T21:53:47.652Z,3.40
2018-12-04T21:56:16.081Z,3.60
2018-12-04T21:58:44.453Z,3.97
2018-12-04T22:01:12.792Z,3.70
2018-12-04T22:03:41.308Z,4.33
2018-12-04T22:06:09.658Z,4.20
2018-12-04T22:08:38.121Z,6.57
2018-12-04T22:11:06.655Z,9.63
2018-12-04T22:13:35.048Z,5.70
2018-12-04T22:16:03.467Z,5.50
2018-12-04T22:18:31.778Z,5.00
2018-12-04T22:21:00.129Z,4.73
2018-12-04T22:23:28.496Z,4.67
2018-12-04T22:25:56.969Z,5.90
2018-12-04T22:28:25.789Z,4.90
2018-12-04T22:30:54.187Z,5.20
2018-12-04T22:33:22.772Z,9.90
2018-12-04T22:35:51.120Z,12.60
2018-12-04T22:38:19.427Z,4.97
2018-12-04T22:40:47.865Z,8.73
2018-12-04T22:43:16.219Z,8.60
2018-12-04T22:45:44.645Z,8.97
2018-12-04T22:48:13.006Z,7.50
2018-12-04T22:50:41.485Z,7.23
2018-12-04T22:53:09.966Z,13.03
2018-12-04T22:55:38.284Z,11.77
2018-12-04T22:58:06.618Z,11.27
2018-12-04T23:00:42.118Z,12.43
2018-12-04T23:03:10.897Z,12.90
2018-12-04T23:05:39.339Z,9.27
2018-12-04T23:08:07.856Z,8.67
2018-12-04T23:10:36.237Z,4.13
2018-12-04T23:13:04.724Z,8.37
2018-12-04T23:15:33.090Z,9.40
2018-12-04T23:18:01.385Z,7.00
2018-12-04T23:20:29.825Z,5.50
2018-12-04T23:22:58.135Z,5.30
2018-12-04T23:25:26.705Z,4.90
2018-12-04T23:27:55.033Z,4.37
2018-12-04T23:30:23.546Z,4.97
2018-12-04T23:32:51.855Z,6.40
2018-12-04T23:35:20.281Z,6.80
2018-12-04T23:37:48.735Z,5.17
2018-12-04T23:40:17.106Z,5.47
2018-12-04T23:42:45.435Z,4.30
2018-12-04T23:45:13.917Z,6.37
2018-12-04T23:47:42.283Z,5.03
2018-12-04T23:50:10.665Z,7.17
2018-12-04T23:52:38.981Z,5.87
2018-12-04T23:55:07.944Z,4.90
2018-12-04T23:57:36.287Z,5.57
